Terminal Aerodrome Forecast
Issued by NWS Sioux Falls, SD

Home | Current Version | Previous Version | Text Only | Print | Product List | Glossary Off
Versions: 1 2 3 4 5 6 7 8 9 10 11 12 13

000
FTUS43 KFSD 211720
TAFHON
TAF
KHON 211720Z 2118/2218 33018G28KT P6SM SKC
     FM212200 33012KT P6SM FEW250
     FM220000 31007KT P6SM FEW250
     FM221200 16007KT P6SM FEW200
     FM221500 16011G19KT P6SM BKN090=

USA.gov is the U.S. government's official web portal to all federal, state and local government web resources and services.